Airfield :
LOGIN :

Register | Disclaimer

   EN    FR    IT 

 










Legend :    VFR   Marginal VFR   IFR   Intensive IFR   Very Intensive IFR
Visi :
Ceiling :
>= 8 km
>= 3000ft
5 to 8 km
1000 to 3000 ft
1500m to 5 km
500 to 1000 ft
800 to 1500m
200 to 500 ft
< 800m
< 200 ft
Symbols :   Thunderstorms  Fog  Heavy snow  Heavy precipitations  Wind > 20 kt
SIGMETs :     Misc.  Thunderstorms  Icing  Turbulence  Mountain Waves  Volcanic Ashes






- Airport Elevation : 408 ft
- IATA code : FKB


EDSB - Karlsruhe Baden Baden

CURRENT METAR :
  • 131050Z VRB04KT CAVOK 26/09 Q1021

EXPIRED METARs :
  • 131020Z 36008KT CAVOK 24/09 Q1021
  • 130950Z 36009KT 320V040 CAVOK 24/10 Q1022
  • 130920Z 36007KT 330V030 CAVOK 23/11 Q1022
  • 130850Z 36008KT 330V030 CAVOK 21/10 Q1022
  • 130820Z 36007KT CAVOK 21/10 Q1022
  • 130750Z 01008KT 330V040 CAVOK 19/11 Q1023

TAF TAF EDSB
Valid from the 13 at 06:00 until the 14 at 06:00 UTC


130500Z 1306/1406 02009KT CAVOK
BECMG 1319/1321 VRB03KT



MET'MAP, your aeronautical weather chart ! - Copyright ORBIFLY December 2007 - Disclaimer

ORBIFLY MET'MAP TEAM :

Programming & Development : Alexandra Zaïnal
Concept & original design : Baudouin d'Aumeries
Assistance for programming : Marc-Olivier Méhu
Technical & hardware support : Manuel Goepfert

Contact : metmap@orbifly.com




SOURCES & CREDITS :

   NOAA